Main page
METAR-TAF:

METAR-TAF

Airports :

Santorini, Greece

Santorini National Airport

latitude: 36-24N, longitude: 025-29E, elevation: 38 m

Current weather observation

The report was made 14 minutes ago, at 09:50 UTC
Wind 18 kt from the North/Northwest
Temperature 19°C
Humidity 60%
Pressure 1018 hPa
Visibility 10 km or more
no clouds below 1500 m and no cumulonimbus

METAR: LGSR 190950Z 34018KT CAVOK 19/11 Q1018

Time: 13:04 (10:04 UTC)

Forecast

The report was made 5 hours and 4 minutes ago, at 05:00 UTC
Forecast valid from 19 at 06 UTC to 20 at 06 UTC
Wind 12 kt from the West/Northwest
Visibility 10 km or more
Few clouds at a height of 2000 ft
Becoming
from 19 at 06 UTC to 19 at 08 UTC
Wind 12 kt from the Northwest with gusts up to 22 kt

TAF: LGSR 190500Z 1906/2006 30012KT 9999 FEW020 BECMG 1906/1908 31012G22KT

Weather observations and forecasts of more than 4000 airports (METAR and TAF reports).

The available stations are represented by yellow and red dots on the map.

Hover mouse over dot to see the name of the station.

Then click to see weather observations and forecasts.

To change the map : click on the green buttons with a black cross to zoom in, on the green button with a dash to zoom out, or on the green arrows for adjacent maps.


METAR-TAF: